sensor_id;sensor_type;location;lat;lon;timestamp;temperature;humidity
56172;DHT22;42052;41.634;-0.946;2022-09-02T00:01:49;26.60;60.20
56172;DHT22;42052;41.634;-0.946;2022-09-02T00:04:22;26.60;60.00
56172;DHT22;42052;41.634;-0.946;2022-09-02T00:06:50;26.70;59.70
56172;DHT22;42052;41.634;-0.946;2022-09-02T00:09:19;26.70;58.30
56172;DHT22;42052;41.634;-0.946;2022-09-02T00:11:47;26.70;56.10
56172;DHT22;42052;41.634;-0.946;2022-09-02T00:14:18;26.60;53.80
56172;DHT22;42052;41.634;-0.946;2022-09-02T00:16:44;26.50;52.30
56172;DHT22;42052;41.634;-0.946;2022-09-02T00:19:20;26.40;51.10
56172;DHT22;42052;41.634;-0.946;2022-09-02T00:21:48;26.40;54.40
56172;DHT22;42052;41.634;-0.946;2022-09-02T00:24:14;26.40;57.10
56172;DHT22;42052;41.634;-0.946;2022-09-02T00:26:40;26.40;58.00
56172;DHT22;42052;41.634;-0.946;2022-09-02T00:29:07;26.40;57.80
56172;DHT22;42052;41.634;-0.946;2022-09-02T00:31:33;26.40;57.70
56172;DHT22;42052;41.634;-0.946;2022-09-02T00:34:01;26.40;57.70
56172;DHT22;42052;41.634;-0.946;2022-09-02T00:36:28;26.50;57.60
56172;DHT22;42052;41.634;-0.946;2022-09-02T00:38:53;26.50;57.70
56172;DHT22;42052;41.634;-0.946;2022-09-02T00:41:24;26.50;57.60
56172;DHT22;42052;41.634;-0.946;2022-09-02T00:43:58;26.50;57.50
56172;DHT22;42052;41.634;-0.946;2022-09-02T00:46:27;26.50;57.40
56172;DHT22;42052;41.634;-0.946;2022-09-02T00:51:19;26.60;57.30
56172;DHT22;42052;41.634;-0.946;2022-09-02T00:53:46;26.60;57.20
56172;DHT22;42052;41.634;-0.946;2022-09-02T00:56:21;26.60;57.10
56172;DHT22;42052;41.634;-0.946;2022-09-02T00:58:49;26.60;57.10
56172;DHT22;42052;41.634;-0.946;2022-09-02T01:01:17;26.70;57.80
56172;DHT22;42052;41.634;-0.946;2022-09-02T01:03:43;26.60;57.00
56172;DHT22;42052;41.634;-0.946;2022-09-02T01:06:10;26.70;57.00
56172;DHT22;42052;41.634;-0.946;2022-09-02T01:08:44;26.70;56.90
56172;DHT22;42052;41.634;-0.946;2022-09-02T01:11:11;26.70;56.80
56172;DHT22;42052;41.634;-0.946;2022-09-02T01:13:40;26.70;56.80
56172;DHT22;42052;41.634;-0.946;2022-09-02T01:18:36;26.70;56.60
56172;DHT22;42052;41.634;-0.946;2022-09-02T01:21:04;26.80;56.60
56172;DHT22;42052;41.634;-0.946;2022-09-02T01:23:31;26.80;56.50
56172;DHT22;42052;41.634;-0.946;2022-09-02T01:25:57;26.80;56.50
56172;DHT22;42052;41.634;-0.946;2022-09-02T01:28:24;26.80;56.50
56172;DHT22;42052;41.634;-0.946;2022-09-02T01:30:53;26.80;56.40
56172;DHT22;42052;41.634;-0.946;2022-09-02T01:33:20;26.80;56.40
56172;DHT22;42052;41.634;-0.946;2022-09-02T01:35:48;26.80;56.30
56172;DHT22;42052;41.634;-0.946;2022-09-02T01:38:14;26.90;56.40
56172;DHT22;42052;41.634;-0.946;2022-09-02T01:40:40;26.90;56.30
56172;DHT22;42052;41.634;-0.946;2022-09-02T01:43:09;26.90;56.30
56172;DHT22;42052;41.634;-0.946;2022-09-02T01:45:37;26.90;56.20
56172;DHT22;42052;41.634;-0.946;2022-09-02T01:48:06;26.90;56.20
56172;DHT22;42052;41.634;-0.946;2022-09-02T01:50:32;26.90;56.20
56172;DHT22;42052;41.634;-0.946;2022-09-02T01:52:59;26.90;56.20
56172;DHT22;42052;41.634;-0.946;2022-09-02T01:55:26;26.90;56.10
56172;DHT22;42052;41.634;-0.946;2022-09-02T01:57:52;26.90;56.10
56172;DHT22;42052;41.634;-0.946;2022-09-02T02:00:18;26.90;56.00
56172;DHT22;42052;41.634;-0.946;2022-09-02T02:02:44;26.90;56.00
56172;DHT22;42052;41.634;-0.946;2022-09-02T02:05:10;26.90;56.00
56172;DHT22;42052;41.634;-0.946;2022-09-02T02:07:36;26.90;56.00
56172;DHT22;42052;41.634;-0.946;2022-09-02T02:10:04;27.00;56.10
56172;DHT22;42052;41.634;-0.946;2022-09-02T02:12:30;26.90;56.00
56172;DHT22;42052;41.634;-0.946;2022-09-02T02:14:56;26.90;55.90
56172;DHT22;42052;41.634;-0.946;2022-09-02T02:17:22;27.00;56.00
56172;DHT22;42052;41.634;-0.946;2022-09-02T02:19:48;27.00;56.00
56172;DHT22;42052;41.634;-0.946;2022-09-02T02:22:14;27.00;56.00
56172;DHT22;42052;41.634;-0.946;2022-09-02T02:24:40;27.00;55.90
56172;DHT22;42052;41.634;-0.946;2022-09-02T02:27:06;27.00;55.80
56172;DHT22;42052;41.634;-0.946;2022-09-02T02:29:31;27.00;55.80
56172;DHT22;42052;41.634;-0.946;2022-09-02T02:31:57;27.00;55.80
56172;DHT22;42052;41.634;-0.946;2022-09-02T02:34:23;27.00;55.70
56172;DHT22;42052;41.634;-0.946;2022-09-02T02:36:49;27.00;55.70
56172;DHT22;42052;41.634;-0.946;2022-09-02T02:39:15;27.00;55.70
56172;DHT22;42052;41.634;-0.946;2022-09-02T02:41:41;27.00;55.70
56172;DHT22;42052;41.634;-0.946;2022-09-02T02:44:07;27.00;55.70
56172;DHT22;42052;41.634;-0.946;2022-09-02T02:46:33;27.10;55.70
56172;DHT22;42052;41.634;-0.946;2022-09-02T02:49:01;27.10;55.70
56172;DHT22;42052;41.634;-0.946;2022-09-02T02:51:27;27.10;55.70
56172;DHT22;42052;41.634;-0.946;2022-09-02T02:53:53;27.10;55.70
56172;DHT22;42052;41.634;-0.946;2022-09-02T02:56:19;27.10;55.70
56172;DHT22;42052;41.634;-0.946;2022-09-02T02:58:45;27.10;55.60
56172;DHT22;42052;41.634;-0.946;2022-09-02T03:01:11;27.10;55.50
56172;DHT22;42052;41.634;-0.946;2022-09-02T03:03:36;27.10;55.50
56172;DHT22;42052;41.634;-0.946;2022-09-02T03:06:02;27.10;55.40
56172;DHT22;42052;41.634;-0.946;2022-09-02T03:08:28;27.10;55.40
56172;DHT22;42052;41.634;-0.946;2022-09-02T03:10:55;27.10;55.40
56172;DHT22;42052;41.634;-0.946;2022-09-02T03:13:23;27.10;55.30
56172;DHT22;42052;41.634;-0.946;2022-09-02T03:15:50;27.10;55.30
56172;DHT22;42052;41.634;-0.946;2022-09-02T03:18:16;27.10;55.20
56172;DHT22;42052;41.634;-0.946;2022-09-02T03:20:42;27.10;55.20
56172;DHT22;42052;41.634;-0.946;2022-09-02T03:23:08;27.10;55.30
56172;DHT22;42052;41.634;-0.946;2022-09-02T03:25:35;27.10;55.50
56172;DHT22;42052;41.634;-0.946;2022-09-02T03:28:02;27.20;56.00
56172;DHT22;42052;41.634;-0.946;2022-09-02T03:30:30;27.20;58.00
56172;DHT22;42052;41.634;-0.946;2022-09-02T03:32:57;27.20;59.10
56172;DHT22;42052;41.634;-0.946;2022-09-02T03:35:25;27.20;59.30
56172;DHT22;42052;41.634;-0.946;2022-09-02T03:37:51;27.30;60.20
56172;DHT22;42052;41.634;-0.946;2022-09-02T03:40:20;27.30;60.10
56172;DHT22;42052;41.634;-0.946;2022-09-02T03:42:47;27.30;59.70
56172;DHT22;42052;41.634;-0.946;2022-09-02T03:45:13;27.20;59.50
56172;DHT22;42052;41.634;-0.946;2022-09-02T03:47:40;27.30;59.50
56172;DHT22;42052;41.634;-0.946;2022-09-02T03:50:11;27.20;59.20
56172;DHT22;42052;41.634;-0.946;2022-09-02T03:52:37;27.30;59.00
56172;DHT22;42052;41.634;-0.946;2022-09-02T03:55:04;27.30;58.90
56172;DHT22;42052;41.634;-0.946;2022-09-02T03:57:30;27.30;58.70
56172;DHT22;42052;41.634;-0.946;2022-09-02T03:59:56;27.30;58.50
56172;DHT22;42052;41.634;-0.946;2022-09-02T04:02:22;27.30;58.50
56172;DHT22;42052;41.634;-0.946;2022-09-02T04:04:49;27.30;58.30
56172;DHT22;42052;41.634;-0.946;2022-09-02T04:07:14;27.30;58.10
56172;DHT22;42052;41.634;-0.946;2022-09-02T04:09:40;27.30;58.00
56172;DHT22;42052;41.634;-0.946;2022-09-02T04:12:06;27.30;57.90
56172;DHT22;42052;41.634;-0.946;2022-09-02T04:14:32;27.30;57.60
56172;DHT22;42052;41.634;-0.946;2022-09-02T04:16:58;27.30;57.60
56172;DHT22;42052;41.634;-0.946;2022-09-02T04:19:24;27.30;57.40
56172;DHT22;42052;41.634;-0.946;2022-09-02T04:21:49;27.30;57.30
56172;DHT22;42052;41.634;-0.946;2022-09-02T04:24:15;27.30;57.10
56172;DHT22;42052;41.634;-0.946;2022-09-02T04:26:41;27.30;57.10
56172;DHT22;42052;41.634;-0.946;2022-09-02T04:29:07;27.30;56.90
56172;DHT22;42052;41.634;-0.946;2022-09-02T04:31:33;27.30;56.80
56172;DHT22;42052;41.634;-0.946;2022-09-02T04:34:00;27.30;56.60
56172;DHT22;42052;41.634;-0.946;2022-09-02T04:36:27;27.30;56.50
56172;DHT22;42052;41.634;-0.946;2022-09-02T04:38:53;27.30;56.30
56172;DHT22;42052;41.634;-0.946;2022-09-02T04:41:25;27.40;56.40
56172;DHT22;42052;41.634;-0.946;2022-09-02T04:43:53;27.30;56.30
56172;DHT22;42052;41.634;-0.946;2022-09-02T04:46:19;27.30;56.20
56172;DHT22;42052;41.634;-0.946;2022-09-02T04:48:45;27.30;56.10
56172;DHT22;42052;41.634;-0.946;2022-09-02T04:51:15;27.40;56.10
56172;DHT22;42052;41.634;-0.946;2022-09-02T04:53:42;27.30;56.00
56172;DHT22;42052;41.634;-0.946;2022-09-02T04:56:11;27.30;55.80
56172;DHT22;42052;41.634;-0.946;2022-09-02T04:58:38;27.30;55.80
56172;DHT22;42052;41.634;-0.946;2022-09-02T05:01:08;27.30;55.70
56172;DHT22;42052;41.634;-0.946;2022-09-02T05:03:36;27.40;55.70
56172;DHT22;42052;41.634;-0.946;2022-09-02T05:06:05;27.40;55.70
56172;DHT22;42052;41.634;-0.946;2022-09-02T05:08:31;27.30;55.50
56172;DHT22;42052;41.634;-0.946;2022-09-02T05:10:57;27.30;55.30
56172;DHT22;42052;41.634;-0.946;2022-09-02T05:13:24;27.40;55.50
56172;DHT22;42052;41.634;-0.946;2022-09-02T05:15:51;27.30;55.20
56172;DHT22;42052;41.634;-0.946;2022-09-02T05:18:17;27.30;55.20
56172;DHT22;42052;41.634;-0.946;2022-09-02T05:20:43;27.40;55.30
56172;DHT22;42052;41.634;-0.946;2022-09-02T05:23:10;27.30;55.00
56172;DHT22;42052;41.634;-0.946;2022-09-02T05:25:38;27.30;55.00
56172;DHT22;42052;41.634;-0.946;2022-09-02T05:28:05;27.30;54.90
56172;DHT22;42052;41.634;-0.946;2022-09-02T05:30:37;27.30;54.90
56172;DHT22;42052;41.634;-0.946;2022-09-02T05:33:04;27.40;55.00
56172;DHT22;42052;41.634;-0.946;2022-09-02T05:35:30;27.40;54.80
56172;DHT22;42052;41.634;-0.946;2022-09-02T05:37:56;27.40;54.70
56172;DHT22;42052;41.634;-0.946;2022-09-02T05:40:22;27.30;54.60
56172;DHT22;42052;41.634;-0.946;2022-09-02T05:42:48;27.40;54.50
56172;DHT22;42052;41.634;-0.946;2022-09-02T05:45:14;27.30;54.50
56172;DHT22;42052;41.634;-0.946;2022-09-02T05:47:40;27.30;54.50
56172;DHT22;42052;41.634;-0.946;2022-09-02T05:50:06;27.30;54.40
56172;DHT22;42052;41.634;-0.946;2022-09-02T05:52:32;27.30;54.40
56172;DHT22;42052;41.634;-0.946;2022-09-02T05:54:58;27.30;54.40
56172;DHT22;42052;41.634;-0.946;2022-09-02T05:57:25;27.40;54.40
56172;DHT22;42052;41.634;-0.946;2022-09-02T05:59:51;27.40;54.30
56172;DHT22;42052;41.634;-0.946;2022-09-02T06:02:22;27.30;54.20
56172;DHT22;42052;41.634;-0.946;2022-09-02T06:04:51;27.30;54.10
56172;DHT22;42052;41.634;-0.946;2022-09-02T06:07:20;27.40;54.10
56172;DHT22;42052;41.634;-0.946;2022-09-02T06:09:46;27.30;54.00
56172;DHT22;42052;41.634;-0.946;2022-09-02T06:12:13;27.30;53.90
56172;DHT22;42052;41.634;-0.946;2022-09-02T06:14:40;27.30;54.00
56172;DHT22;42052;41.634;-0.946;2022-09-02T06:17:06;27.30;53.90
56172;DHT22;42052;41.634;-0.946;2022-09-02T06:19:32;27.30;53.90
56172;DHT22;42052;41.634;-0.946;2022-09-02T06:22:00;27.30;53.90
56172;DHT22;42052;41.634;-0.946;2022-09-02T06:24:27;27.30;53.80
56172;DHT22;42052;41.634;-0.946;2022-09-02T06:26:53;27.40;53.70
56172;DHT22;42052;41.634;-0.946;2022-09-02T06:29:20;27.30;53.50
56172;DHT22;42052;41.634;-0.946;2022-09-02T06:31:48;27.30;53.50
56172;DHT22;42052;41.634;-0.946;2022-09-02T06:34:16;27.40;53.60
56172;DHT22;42052;41.634;-0.946;2022-09-02T06:36:44;27.30;53.50
56172;DHT22;42052;41.634;-0.946;2022-09-02T06:39:13;27.30;53.50
56172;DHT22;42052;41.634;-0.946;2022-09-02T06:41:40;27.30;53.50
56172;DHT22;42052;41.634;-0.946;2022-09-02T06:44:08;27.30;53.50
56172;DHT22;42052;41.634;-0.946;2022-09-02T06:46:38;27.30;53.30
56172;DHT22;42052;41.634;-0.946;2022-09-02T06:49:06;27.30;53.40
56172;DHT22;42052;41.634;-0.946;2022-09-02T06:51:44;27.30;53.50
56172;DHT22;42052;41.634;-0.946;2022-09-02T06:54:13;27.30;53.50
56172;DHT22;42052;41.634;-0.946;2022-09-02T06:56:41;27.30;53.40
56172;DHT22;42052;41.634;-0.946;2022-09-02T06:59:08;27.30;53.30
56172;DHT22;42052;41.634;-0.946;2022-09-02T07:01:34;27.30;53.30
56172;DHT22;42052;41.634;-0.946;2022-09-02T07:04:02;27.30;53.30
56172;DHT22;42052;41.634;-0.946;2022-09-02T07:06:49;27.30;53.20
56172;DHT22;42052;41.634;-0.946;2022-09-02T07:09:19;27.30;53.10
56172;DHT22;42052;41.634;-0.946;2022-09-02T07:11:46;27.30;53.10
56172;DHT22;42052;41.634;-0.946;2022-09-02T07:14:17;27.30;53.00
56172;DHT22;42052;41.634;-0.946;2022-09-02T07:16:48;27.30;52.80
56172;DHT22;42052;41.634;-0.946;2022-09-02T07:19:15;27.30;52.80
56172;DHT22;42052;41.634;-0.946;2022-09-02T07:21:41;27.30;53.10
56172;DHT22;42052;41.634;-0.946;2022-09-02T07:24:09;27.30;53.10
56172;DHT22;42052;41.634;-0.946;2022-09-02T07:26:36;27.30;53.20
56172;DHT22;42052;41.634;-0.946;2022-09-02T07:29:04;27.30;53.20
56172;DHT22;42052;41.634;-0.946;2022-09-02T07:31:35;27.30;53.10
56172;DHT22;42052;41.634;-0.946;2022-09-02T07:34:01;27.30;53.20
56172;DHT22;42052;41.634;-0.946;2022-09-02T07:36:27;27.30;53.30
56172;DHT22;42052;41.634;-0.946;2022-09-02T07:38:53;27.30;53.30
56172;DHT22;42052;41.634;-0.946;2022-09-02T07:41:21;27.30;53.30
56172;DHT22;42052;41.634;-0.946;2022-09-02T07:43:48;27.30;53.40
56172;DHT22;42052;41.634;-0.946;2022-09-02T07:46:14;27.40;53.50
56172;DHT22;42052;41.634;-0.946;2022-09-02T07:48:40;27.40;53.40
56172;DHT22;42052;41.634;-0.946;2022-09-02T07:51:07;27.40;53.40
56172;DHT22;42052;41.634;-0.946;2022-09-02T07:53:34;27.40;53.50
56172;DHT22;42052;41.634;-0.946;2022-09-02T07:56:01;27.40;53.40
56172;DHT22;42052;41.634;-0.946;2022-09-02T07:58:27;27.40;53.40
56172;DHT22;42052;41.634;-0.946;2022-09-02T08:00:54;27.40;53.50
56172;DHT22;42052;41.634;-0.946;2022-09-02T08:03:24;27.40;53.50
56172;DHT22;42052;41.634;-0.946;2022-09-02T08:05:50;27.40;53.60
56172;DHT22;42052;41.634;-0.946;2022-09-02T08:08:17;27.40;54.30
56172;DHT22;42052;41.634;-0.946;2022-09-02T08:10:48;27.40;53.60
56172;DHT22;42052;41.634;-0.946;2022-09-02T08:13:15;27.40;53.60
56172;DHT22;42052;41.634;-0.946;2022-09-02T08:15:42;27.40;53.60
56172;DHT22;42052;41.634;-0.946;2022-09-02T08:18:08;27.50;53.60
56172;DHT22;42052;41.634;-0.946;2022-09-02T08:20:34;27.40;53.60
56172;DHT22;42052;41.634;-0.946;2022-09-02T08:23:03;27.40;53.60
56172;DHT22;42052;41.634;-0.946;2022-09-02T08:25:30;27.40;53.70
56172;DHT22;42052;41.634;-0.946;2022-09-02T08:27:56;27.40;53.60
56172;DHT22;42052;41.634;-0.946;2022-09-02T08:30:22;27.50;53.70
56172;DHT22;42052;41.634;-0.946;2022-09-02T08:32:47;27.40;53.60
56172;DHT22;42052;41.634;-0.946;2022-09-02T08:35:13;27.40;53.60
56172;DHT22;42052;41.634;-0.946;2022-09-02T08:37:39;27.50;53.70
56172;DHT22;42052;41.634;-0.946;2022-09-02T08:40:09;27.50;53.70
56172;DHT22;42052;41.634;-0.946;2022-09-02T08:42:43;27.50;53.70
56172;DHT22;42052;41.634;-0.946;2022-09-02T08:45:32;27.50;54.40
56172;DHT22;42052;41.634;-0.946;2022-09-02T08:48:06;27.50;53.70
56172;DHT22;42052;41.634;-0.946;2022-09-02T08:50:36;27.50;53.70
56172;DHT22;42052;41.634;-0.946;2022-09-02T08:53:26;27.50;53.70
56172;DHT22;42052;41.634;-0.946;2022-09-02T08:55:56;27.50;53.70
56172;DHT22;42052;41.634;-0.946;2022-09-02T08:58:38;27.50;53.70
56172;DHT22;42052;41.634;-0.946;2022-09-02T09:01:28;27.50;53.70
56172;DHT22;42052;41.634;-0.946;2022-09-02T09:18:07;27.50;53.70
56172;DHT22;42052;41.634;-0.946;2022-09-02T09:20:38;27.50;53.70
56172;DHT22;42052;41.634;-0.946;2022-09-02T09:23:44;27.50;53.70
56172;DHT22;42052;41.634;-0.946;2022-09-02T09:26:11;27.50;53.80
56172;DHT22;42052;41.634;-0.946;2022-09-02T09:28:39;27.50;53.90
56172;DHT22;42052;41.634;-0.946;2022-09-02T09:31:13;27.50;53.90
56172;DHT22;42052;41.634;-0.946;2022-09-02T09:39:29;27.50;54.00
56172;DHT22;42052;41.634;-0.946;2022-09-02T09:42:01;27.50;54.00
56172;DHT22;42052;41.634;-0.946;2022-09-02T09:44:42;27.50;54.00
56172;DHT22;42052;41.634;-0.946;2022-09-02T09:47:22;27.50;54.00
56172;DHT22;42052;41.634;-0.946;2022-09-02T09:50:08;27.60;54.10
56172;DHT22;42052;41.634;-0.946;2022-09-02T09:52:34;27.50;54.00
56172;DHT22;42052;41.634;-0.946;2022-09-02T09:55:27;27.50;54.00
56172;DHT22;42052;41.634;-0.946;2022-09-02T09:58:07;27.60;54.10
56172;DHT22;42052;41.634;-0.946;2022-09-02T10:00:33;27.50;54.00
56172;DHT22;42052;41.634;-0.946;2022-09-02T10:03:28;27.50;54.10
56172;DHT22;42052;41.634;-0.946;2022-09-02T10:05:58;27.50;54.10
56172;DHT22;42052;41.634;-0.946;2022-09-02T10:11:27;27.60;54.30
56172;DHT22;42052;41.634;-0.946;2022-09-02T10:14:04;27.50;54.20
56172;DHT22;42052;41.634;-0.946;2022-09-02T10:28:12;27.60;54.40
56172;DHT22;42052;41.634;-0.946;2022-09-02T10:36:18;27.60;54.40
56172;DHT22;42052;41.634;-0.946;2022-09-02T10:38:46;27.60;54.40
56172;DHT22;42052;41.634;-0.946;2022-09-02T10:41:35;27.60;54.40
56172;DHT22;42052;41.634;-0.946;2022-09-02T10:44:26;27.70;54.50
56172;DHT22;42052;41.634;-0.946;2022-09-02T10:47:13;27.70;54.40
56172;DHT22;42052;41.634;-0.946;2022-09-02T10:58:09;27.60;54.30
56172;DHT22;42052;41.634;-0.946;2022-09-02T11:00:40;27.70;54.40
56172;DHT22;42052;41.634;-0.946;2022-09-02T11:03:20;27.60;54.30
56172;DHT22;42052;41.634;-0.946;2022-09-02T11:06:10;27.70;54.30
56172;DHT22;42052;41.634;-0.946;2022-09-02T11:08:45;27.70;54.30
56172;DHT22;42052;41.634;-0.946;2022-09-02T11:11:26;27.70;54.30
56172;DHT22;42052;41.634;-0.946;2022-09-02T11:16:45;27.70;54.30
56172;DHT22;42052;41.634;-0.946;2022-09-02T11:21:59;27.70;54.20
56172;DHT22;42052;41.634;-0.946;2022-09-02T11:24:33;27.80;54.30
56172;DHT22;42052;41.634;-0.946;2022-09-02T11:27:40;27.70;54.20
56172;DHT22;42052;41.634;-0.946;2022-09-02T11:30:18;27.70;54.20
56172;DHT22;42052;41.634;-0.946;2022-09-02T11:33:01;27.70;54.20
56172;DHT22;42052;41.634;-0.946;2022-09-02T11:35:33;27.70;54.10
56172;DHT22;42052;41.634;-0.946;2022-09-02T11:38:05;27.80;54.10
56172;DHT22;42052;41.634;-0.946;2022-09-02T11:43:45;27.80;54.10
56172;DHT22;42052;41.634;-0.946;2022-09-02T11:52:30;27.80;54.00
56172;DHT22;42052;41.634;-0.946;2022-09-02T11:57:53;27.80;54.00
56172;DHT22;42052;41.634;-0.946;2022-09-02T12:08:05;27.80;54.00
56172;DHT22;42052;41.634;-0.946;2022-09-02T12:13:44;27.80;53.90
56172;DHT22;42052;41.634;-0.946;2022-09-02T12:21:24;27.90;54.00
56172;DHT22;42052;41.634;-0.946;2022-09-02T12:26:24;27.90;54.00
56172;DHT22;42052;41.634;-0.946;2022-09-02T12:28:51;27.90;54.00
56172;DHT22;42052;41.634;-0.946;2022-09-02T12:31:40;27.90;54.10
56172;DHT22;42052;41.634;-0.946;2022-09-02T12:36:55;27.90;54.10
56172;DHT22;42052;41.634;-0.946;2022-09-02T12:42:08;28.00;54.40
56172;DHT22;42052;41.634;-0.946;2022-09-02T12:45:13;28.00;54.40
56172;DHT22;42052;41.634;-0.946;2022-09-02T12:47:57;28.00;54.40
56172;DHT22;42052;41.634;-0.946;2022-09-02T12:50:31;28.00;54.40
56172;DHT22;42052;41.634;-0.946;2022-09-02T12:56:05;28.00;54.70
56172;DHT22;42052;41.634;-0.946;2022-09-02T12:58:46;28.10;55.40
56172;DHT22;42052;41.634;-0.946;2022-09-02T13:01:33;28.10;55.00
56172;DHT22;42052;41.634;-0.946;2022-09-02T13:04:05;28.10;54.90
56172;DHT22;42052;41.634;-0.946;2022-09-02T13:06:56;28.10;55.50
56172;DHT22;42052;41.634;-0.946;2022-09-02T13:09:49;28.10;55.60
56172;DHT22;42052;41.634;-0.946;2022-09-02T13:15:28;28.10;55.80
56172;DHT22;42052;41.634;-0.946;2022-09-02T13:32:26;28.20;55.70
56172;DHT22;42052;41.634;-0.946;2022-09-02T13:34:55;28.20;55.50
56172;DHT22;42052;41.634;-0.946;2022-09-02T13:37:39;28.20;55.30
56172;DHT22;42052;41.634;-0.946;2022-09-02T13:40:33;28.20;55.00
56172;DHT22;42052;41.634;-0.946;2022-09-02T13:45:39;28.20;55.20
56172;DHT22;42052;41.634;-0.946;2022-09-02T13:48:10;28.20;55.00
56172;DHT22;42052;41.634;-0.946;2022-09-02T13:50:42;28.20;55.00
56172;DHT22;42052;41.634;-0.946;2022-09-02T13:53:12;28.20;55.00
56172;DHT22;42052;41.634;-0.946;2022-09-02T13:55:48;28.20;55.10
56172;DHT22;42052;41.634;-0.946;2022-09-02T13:58:39;28.20;55.00
56172;DHT22;42052;41.634;-0.946;2022-09-02T14:03:54;28.20;54.90
56172;DHT22;42052;41.634;-0.946;2022-09-02T14:06:29;28.20;54.90
56172;DHT22;42052;41.634;-0.946;2022-09-02T14:09:03;28.20;54.80
56172;DHT22;42052;41.634;-0.946;2022-09-02T14:11:37;28.20;54.80
56172;DHT22;42052;41.634;-0.946;2022-09-02T14:14:03;28.20;55.00
56172;DHT22;42052;41.634;-0.946;2022-09-02T14:16:32;28.20;54.80
56172;DHT22;42052;41.634;-0.946;2022-09-02T14:19:22;28.20;54.80
56172;DHT22;42052;41.634;-0.946;2022-09-02T14:21:49;28.30;54.80
56172;DHT22;42052;41.634;-0.946;2022-09-02T14:24:20;28.20;54.80
56172;DHT22;42052;41.634;-0.946;2022-09-02T14:26:50;28.30;54.80
56172;DHT22;42052;41.634;-0.946;2022-09-02T14:29:18;28.20;54.70
56172;DHT22;42052;41.634;-0.946;2022-09-02T14:31:45;28.20;54.70
56172;DHT22;42052;41.634;-0.946;2022-09-02T14:37:56;28.30;54.70
56172;DHT22;42052;41.634;-0.946;2022-09-02T14:40:36;28.30;54.70
56172;DHT22;42052;41.634;-0.946;2022-09-02T14:43:02;28.30;54.70
56172;DHT22;42052;41.634;-0.946;2022-09-02T14:45:33;28.20;54.60
56172;DHT22;42052;41.634;-0.946;2022-09-02T14:48:22;28.30;54.90
56172;DHT22;42052;41.634;-0.946;2022-09-02T14:50:47;28.30;55.20
56172;DHT22;42052;41.634;-0.946;2022-09-02T14:53:19;28.30;54.70
56172;DHT22;42052;41.634;-0.946;2022-09-02T14:55:49;28.30;54.50
56172;DHT22;42052;41.634;-0.946;2022-09-02T14:58:41;28.30;54.40
56172;DHT22;42052;41.634;-0.946;2022-09-02T15:01:07;28.30;54.30
56172;DHT22;42052;41.634;-0.946;2022-09-02T15:03:36;28.30;54.30
56172;DHT22;42052;41.634;-0.946;2022-09-02T15:06:02;28.30;54.30
56172;DHT22;42052;41.634;-0.946;2022-09-02T15:08:28;28.30;54.10
56172;DHT22;42052;41.634;-0.946;2022-09-02T15:10:59;28.30;54.30
56172;DHT22;42052;41.634;-0.946;2022-09-02T15:13:28;28.40;54.30
56172;DHT22;42052;41.634;-0.946;2022-09-02T15:15:57;28.30;54.20
56172;DHT22;42052;41.634;-0.946;2022-09-02T15:18:24;28.30;54.10
56172;DHT22;42052;41.634;-0.946;2022-09-02T15:20:50;28.30;54.20
56172;DHT22;42052;41.634;-0.946;2022-09-02T15:23:16;28.30;54.20
56172;DHT22;42052;41.634;-0.946;2022-09-02T15:25:43;28.30;54.30
56172;DHT22;42052;41.634;-0.946;2022-09-02T15:28:09;28.40;54.20
56172;DHT22;42052;41.634;-0.946;2022-09-02T15:30:35;28.40;54.40
56172;DHT22;42052;41.634;-0.946;2022-09-02T15:33:06;28.30;54.30
56172;DHT22;42052;41.634;-0.946;2022-09-02T15:35:32;28.30;54.30
56172;DHT22;42052;41.634;-0.946;2022-09-02T15:37:59;28.40;54.40
56172;DHT22;42052;41.634;-0.946;2022-09-02T15:40:27;28.30;54.30
56172;DHT22;42052;41.634;-0.946;2022-09-02T15:42:53;28.30;54.30
56172;DHT22;42052;41.634;-0.946;2022-09-02T15:45:21;28.30;54.30
56172;DHT22;42052;41.634;-0.946;2022-09-02T15:47:47;28.40;54.40
56172;DHT22;42052;41.634;-0.946;2022-09-02T15:50:12;28.30;54.30
56172;DHT22;42052;41.634;-0.946;2022-09-02T15:52:39;28.30;54.30
56172;DHT22;42052;41.634;-0.946;2022-09-02T15:55:05;28.40;54.40
56172;DHT22;42052;41.634;-0.946;2022-09-02T15:57:31;28.30;53.00
56172;DHT22;42052;41.634;-0.946;2022-09-02T15:59:57;28.20;51.40
56172;DHT22;42052;41.634;-0.946;2022-09-02T16:02:23;28.10;50.20
56172;DHT22;42052;41.634;-0.946;2022-09-02T16:04:49;28.00;49.30
56172;DHT22;42052;41.634;-0.946;2022-09-02T16:07:14;28.00;48.50
56172;DHT22;42052;41.634;-0.946;2022-09-02T16:09:40;27.90;48.00
56172;DHT22;42052;41.634;-0.946;2022-09-02T16:12:06;27.70;47.50
56172;DHT22;42052;41.634;-0.946;2022-09-02T16:14:32;27.70;47.20
56172;DHT22;42052;41.634;-0.946;2022-09-02T16:16:59;27.60;46.80
56172;DHT22;42052;41.634;-0.946;2022-09-02T16:19:25;27.50;46.50
56172;DHT22;42052;41.634;-0.946;2022-09-02T16:21:52;27.50;46.30
56172;DHT22;42052;41.634;-0.946;2022-09-02T16:24:18;27.30;46.00
56172;DHT22;42052;41.634;-0.946;2022-09-02T16:26:46;27.30;46.00
56172;DHT22;42052;41.634;-0.946;2022-09-02T16:29:13;27.20;45.80
56172;DHT22;42052;41.634;-0.946;2022-09-02T16:31:41;27.10;45.60
56172;DHT22;42052;41.634;-0.946;2022-09-02T16:34:10;27.10;45.50
56172;DHT22;42052;41.634;-0.946;2022-09-02T16:36:38;26.90;45.30
56172;DHT22;42052;41.634;-0.946;2022-09-02T16:39:05;27.00;49.80
56172;DHT22;42052;41.634;-0.946;2022-09-02T16:41:33;27.00;52.10
56172;DHT22;42052;41.634;-0.946;2022-09-02T16:44:02;27.00;54.00
56172;DHT22;42052;41.634;-0.946;2022-09-02T16:46:29;27.00;55.20
56172;DHT22;42052;41.634;-0.946;2022-09-02T16:48:55;27.00;55.80
56172;DHT22;42052;41.634;-0.946;2022-09-02T16:51:22;27.10;56.10
56172;DHT22;42052;41.634;-0.946;2022-09-02T16:53:53;27.10;56.30
56172;DHT22;42052;41.634;-0.946;2022-09-02T16:56:19;27.10;56.10
56172;DHT22;42052;41.634;-0.946;2022-09-02T16:58:46;27.20;54.20
56172;DHT22;42052;41.634;-0.946;2022-09-02T17:01:12;27.10;52.20
56172;DHT22;42052;41.634;-0.946;2022-09-02T17:03:39;27.00;51.00
56172;DHT22;42052;41.634;-0.946;2022-09-02T17:06:06;26.90;49.80
56172;DHT22;42052;41.634;-0.946;2022-09-02T17:08:33;26.90;49.10
56172;DHT22;42052;41.634;-0.946;2022-09-02T17:11:30;26.80;48.50
56172;DHT22;42052;41.634;-0.946;2022-09-02T17:14:06;26.80;47.90
56172;DHT22;42052;41.634;-0.946;2022-09-02T17:16:42;26.70;51.90
56172;DHT22;42052;41.634;-0.946;2022-09-02T17:19:09;26.70;54.10
56172;DHT22;42052;41.634;-0.946;2022-09-02T17:21:42;26.70;55.70
56172;DHT22;42052;41.634;-0.946;2022-09-02T17:24:10;26.70;56.30
56172;DHT22;42052;41.634;-0.946;2022-09-02T17:26:38;26.80;56.50
56172;DHT22;42052;41.634;-0.946;2022-09-02T17:29:55;26.80;56.40
56172;DHT22;42052;41.634;-0.946;2022-09-02T17:32:21;26.90;56.00
56172;DHT22;42052;41.634;-0.946;2022-09-02T17:34:48;26.90;54.20
56172;DHT22;42052;41.634;-0.946;2022-09-02T17:37:15;26.90;52.50